Archival Weather

Fayette Rgnl Air Cntr Arp

Fayette Rgnl Air Cntr Arp, Texas (K3T5)

Report from: Thursday, September 22, 2022 12:15 AM CDT
Current time: Friday, February 3, 2023 10:49 PM CST

Current weather
Weather history
Weather forecast

Temperature24.5°C (76.1°F)
Dew point21.7°C (71.1°F)
Winds 4 kts (2.1 m/s, 4.6 mph) South-Southwest (210°)
Visibility10 mi. (16.1 km)
Clouds Sky clear
Altimeter29.98 in.Hg (1015 mB)
Relative humidity84 %
Density altitude1,384 ft. (422 m)
Remarks Fully automated report
Automated weather observing station with precipitation discriminator
Flight conditions Visual Meteorological Conditions
Raw dataK3T5 220515Z AUTO 21004KT 10SM CLR 25/22 A2998 RMK AO2 T02450217
An unhandled exception has occurred. See browser dev tools for details. Reload 🗙